Time;durP1;ratioP1;P1;durP2;ratioP2;P2;SDS_P1;SDS_P2;PMS_P1;PMS_P2;Temp;Humidity;BMP_temperature;BMP_pressure;BME280_temperature;BME280_humidity;BME280_pressure;Samples;Min_cycle;Max_cycle;Signal;HPM_P1;HPM_P2
2022/08/31 00:06:00;;;;;;;43.05;8.50;;;;;;;21.91;100.00;98056.22;4967346;28;21059;-54
2022/08/31 00:08:27;;;;;;;46.55;8.75;;;;;;;21.87;100.00;98049.47;4967746;28;20032;-54
2022/08/31 00:10:54;;;;;;;52.15;9.32;;;;;;;21.79;100.00;98046.66;4969252;28;20034;-52
2022/08/31 00:13:24;;;;;;;46.97;9.35;;;;;;;21.70;100.00;98043.78;4967097;28;20636;-53
2022/08/31 00:15:50;;;;;;;39.03;8.48;;;;;;;21.70;100.00;98043.78;4968377;28;20141;-52
2022/08/31 00:18:16;;;;;;;35.45;8.07;;;;;;;22.00;100.00;98043.94;4968947;28;20031;-52
2022/08/31 00:20:42;;;;;;;48.03;9.52;;;;;;;22.13;100.00;98040.06;4970470;28;20101;-52
2022/08/31 00:23:10;;;;;;;35.47;8.07;;;;;;;22.00;100.00;98044.78;4970412;28;20124;-52
2022/08/31 00:25:38;;;;;;;36.95;8.23;;;;;;;21.69;100.00;98036.00;4962938;28;20046;-54
2022/08/31 00:28:04;;;;;;;38.53;7.85;;;;;;;21.79;100.00;98036.03;4968631;28;20034;-53
2022/08/31 00:30:30;;;;;;;44.42;8.75;;;;;;;21.73;100.00;98043.53;4966969;28;20038;-54
2022/08/31 00:32:56;;;;;;;50.08;8.93;;;;;;;22.01;100.00;98050.94;4967100;28;20316;-52
2022/08/31 00:35:22;;;;;;;37.28;8.32;;;;;;;21.58;100.00;98050.19;4966492;28;20204;-52
2022/08/31 00:37:47;;;;;;;40.97;8.32;;;;;;;21.77;100.00;98049.44;4965693;28;20559;-52
2022/08/31 00:40:13;;;;;;;49.38;9.40;;;;;;;21.70;100.00;98054.41;4964996;28;20030;-53
2022/08/31 00:42:38;;;;;;;43.78;9.02;;;;;;;21.46;100.00;98056.53;4968268;28;20041;-53
2022/08/31 00:45:05;;;;;;;35.55;8.00;;;;;;;21.77;100.00;98043.28;4966681;28;20232;-52
2022/08/31 00:47:31;;;;;;;37.20;8.30;;;;;;;21.64;100.00;98047.00;4969078;28;20309;-53
2022/08/31 00:49:56;;;;;;;34.35;8.30;;;;;;;21.59;100.00;98049.19;4968149;28;20235;-52
2022/08/31 00:52:26;;;;;;;51.60;9.93;;;;;;;21.45;100.00;98038.91;4966788;28;20030;-52
2022/08/31 00:54:55;;;;;;;41.80;8.88;;;;;;;21.66;100.00;98037.06;4966207;28;20039;-53
2022/08/31 00:57:21;;;;;;;42.83;9.02;;;;;;;21.66;100.00;98022.97;4966372;28;20045;-52
2022/08/31 00:59:48;;;;;;;42.60;8.82;;;;;;;21.75;100.00;98030.97;4981673;28;20042;-52
2022/08/31 01:02:14;;;;;;;43.33;8.65;;;;;;;21.54;100.00;98040.78;4964580;28;20386;-52
2022/08/31 01:04:39;;;;;;;42.78;9.05;;;;;;;21.52;100.00;98034.75;4965736;28;20500;-52
2022/08/31 01:07:06;;;;;;;28.83;7.55;;;;;;;21.29;100.00;98034.88;4967357;28;20089;-52
2022/08/31 01:09:36;;;;;;;40.17;8.52;;;;;;;21.66;100.00;98037.06;4967258;28;20492;-52
2022/08/31 01:12:04;;;;;;;38.13;8.18;;;;;;;21.51;100.00;98043.72;4965132;28;20046;-54
2022/08/31 01:14:30;;;;;;;50.92;9.27;;;;;;;21.74;100.00;98039.94;4967712;28;20066;-52
2022/08/31 01:16:55;;;;;;;37.85;8.55;;;;;;;21.73;100.00;98038.22;4968566;28;20130;-52
2022/08/31 01:19:32;;;;;;;47.05;9.35;;;;;;;21.77;100.00;98043.28;4968593;28;20026;-52
2022/08/31 01:22:35;;;;;;;35.10;8.02;;;;;;;21.73;100.00;98048.03;4967010;28;20039;-52
2022/08/31 01:25:01;;;;;;;38.47;8.40;;;;;;;21.45;100.00;98054.81;4982601;28;20418;-52
2022/08/31 01:27:31;;;;;;;50.42;9.35;;;;;;;21.78;100.00;98047.59;4966952;28;20074;-52
2022/08/31 01:30:02;;;;;;;35.33;7.97;;;;;;;21.80;100.00;98049.16;4967659;28;20053;-53
2022/08/31 01:32:28;;;;;;;48.70;9.20;;;;;;;21.14;100.00;98046.78;4965679;28;20184;-53
2022/08/31 01:34:53;;;;;;;36.10;7.65;;;;;;;21.68;100.00;98051.06;4981573;28;20122;-52
2022/08/31 01:37:18;;;;;;;36.92;7.95;;;;;;;21.92;100.00;98040.13;4966451;28;20125;-52
2022/08/31 01:39:44;;;;;;;49.20;9.43;;;;;;;21.47;100.00;98048.44;4968013;28;20388;-52
2022/08/31 01:42:09;;;;;;;36.50;8.05;;;;;;;21.68;100.00;98048.41;4975857;28;20042;-53
2022/08/31 01:44:35;;;;;;;48.58;9.55;;;;;;;21.60;100.00;98053.53;4965214;28;20563;-52
2022/08/31 01:47:00;;;;;;;39.95;8.77;;;;;;;21.43;100.00;98051.44;4965896;28;20038;-53
2022/08/31 01:49:26;;;;;;;40.97;8.23;;;;;;;21.30;100.00;98052.50;4964597;28;20432;-52
2022/08/31 01:51:52;;;;;;;33.58;8.07;;;;;;;21.72;100.00;98046.31;4968911;28;20132;-52
2022/08/31 01:54:19;;;;;;;44.63;8.82;;;;;;;21.19;100.00;98049.88;4964860;28;20026;-53
2022/08/31 01:56:46;;;;;;;45.53;9.40;;;;;;;21.42;100.00;98050.59;4966439;28;20038;-53
2022/08/31 01:59:14;;;;;;;36.97;8.38;;;;;;;21.55;100.00;98045.13;4965247;28;20030;-52
2022/08/31 02:01:43;;;;;;;37.15;8.40;;;;;;;21.52;100.00;98048.03;4980768;28;20613;-52
2022/08/31 02:04:10;;;;;;;33.85;7.95;;;;;;;21.29;100.00;98042.84;4967696;28;20041;-54
2022/08/31 02:06:36;;;;;;;41.05;8.57;;;;;;;21.51;100.00;98047.19;4964091;28;20041;-52
2022/08/31 02:09:04;;;;;;;38.72;8.77;;;;;;;21.71;100.00;98042.00;4963105;28;20029;-52
2022/08/31 02:11:30;;;;;;;39.50;8.88;;;;;;;21.12;100.00;98043.44;4965190;28;20117;-52
2022/08/31 02:13:55;;;;;;;48.08;9.70;;;;;;;21.12;100.00;98038.13;4965801;28;20033;-52
2022/08/31 02:16:21;;;;;;;35.70;8.40;;;;;;;21.11;100.00;98033.78;4966821;28;20034;-55
2022/08/31 02:18:46;;;;;;;42.25;9.05;;;;;;;21.26;100.00;98035.13;4968945;28;20041;-53
2022/08/31 02:21:12;;;;;;;58.35;10.43;;;;;;;21.32;100.00;98034.63;4964496;28;20038;-52
2022/08/31 02:23:38;;;;;;;40.15;8.90;;;;;;;20.92;100.00;98035.31;4964111;28;20029;-53
2022/08/31 02:26:05;;;;;;;39.55;8.95;;;;;;;20.95;100.00;98032.41;4965342;28;20034;-52
2022/08/31 02:28:30;;;;;;;34.25;8.35;;;;;;;21.16;100.00;98032.41;4965655;28;20073;-52
2022/08/31 02:30:55;;;;;;;47.67;9.50;;;;;;;20.78;100.00;98031.13;4967174;28;20455;-54
2022/08/31 02:33:23;;;;;;;39.63;8.73;;;;;;;21.11;100.00;98031.94;4967802;28;20061;-52
2022/08/31 02:35:49;;;;;;;37.33;8.27;;;;;;;21.19;100.00;98031.31;4979484;28;20045;-52
2022/08/31 02:38:15;;;;;;;42.70;9.18;;;;;;;21.01;100.00;98024.91;4966655;28;20023;-52
2022/08/31 02:40:40;;;;;;;31.27;7.75;;;;;;;21.08;100.00;98029.59;4963818;28;20046;-52
2022/08/31 02:43:08;;;;;;;38.67;8.75;;;;;;;21.45;100.00;98033.59;4967952;28;20030;-52
2022/08/31 02:45:34;;;;;;;49.03;9.18;;;;;;;21.19;100.00;98028.66;4965949;28;20066;-52
2022/08/31 02:48:00;;;;;;;50.45;10.07;;;;;;;21.03;100.00;98028.28;4961274;28;20030;-53
2022/08/31 02:50:25;;;;;;;39.63;8.68;;;;;;;20.58;100.00;98032.72;4963232;28;20039;-52
2022/08/31 02:52:53;;;;;;;60.63;10.65;;;;;;;20.51;100.00;98028.94;4965221;28;20035;-53
2022/08/31 02:55:20;;;;;;;53.28;9.95;;;;;;;21.01;100.00;98024.91;4966430;28;20664;-52
2022/08/31 02:57:46;;;;;;;44.88;9.02;;;;;;;21.14;100.00;98025.56;4973585;28;20039;-53
2022/08/31 03:00:12;;;;;;;38.92;8.10;;;;;;;20.95;100.00;98020.94;4965274;28;20026;-52
2022/08/31 03:02:39;;;;;;;33.05;7.97;;;;;;;20.73;100.00;98019.22;4964796;28;20039;-52
2022/08/31 03:05:09;;;;;;;33.65;8.30;;;;;;;20.70;100.00;98028.28;4966562;28;20722;-52
2022/08/31 03:07:35;;;;;;;43.55;8.40;;;;;;;20.84;100.00;98024.47;4964883;28;20046;-52
2022/08/31 03:10:01;;;;;;;29.00;7.57;;;;;;;20.50;100.00;98032.53;4967867;28;20030;-53
2022/08/31 03:12:27;;;;;;;46.08;8.90;;;;;;;20.68;100.00;98027.56;4965112;28;20034;-52
2022/08/31 03:14:53;;;;;;;56.63;10.32;;;;;;;20.98;100.00;98032.13;4964485;28;20037;-52
2022/08/31 03:17:18;;;;;;;57.85;10.18;;;;;;;20.88;100.00;98030.38;4965070;28;20087;-53
2022/08/31 03:19:43;;;;;;;41.05;9.40;;;;;;;20.56;100.00;98032.03;4964958;28;20810;-52
2022/08/31 03:22:09;;;;;;;35.50;8.05;;;;;;;20.63;100.00;98032.41;4969253;28;20046;-52
2022/08/31 03:24:35;;;;;;;54.70;9.93;;;;;;;21.04;100.00;98027.31;4968709;28;20046;-52
2022/08/31 03:27:00;;;;;;;34.90;8.13;;;;;;;20.84;100.00;98029.78;4967311;28;20074;-53
2022/08/31 03:29:26;;;;;;;37.92;8.25;;;;;;;20.94;100.00;98022.75;4968458;28;20034;-52
2022/08/31 03:31:51;;;;;;;28.48;7.47;;;;;;;20.73;100.00;98021.88;4967978;28;20035;-52
2022/08/31 03:34:16;;;;;;;47.90;9.13;;;;;;;20.87;100.00;98024.25;4967729;28;20125;-52
2022/08/31 03:36:42;;;;;;;57.45;10.25;;;;;;;20.62;100.00;98024.56;4983532;28;20061;-52
2022/08/31 03:39:07;;;;;;;34.42;8.00;;;;;;;20.46;100.00;98017.84;4971125;28;20030;-53
2022/08/31 03:41:33;;;;;;;35.30;8.27;;;;;;;20.39;100.00;98027.25;4966883;28;20448;-52
2022/08/31 03:44:00;;;;;;;31.65;7.80;;;;;;;20.64;100.00;98033.25;4968272;28;20513;-52
2022/08/31 03:46:27;;;;;;;33.17;7.68;;;;;;;20.71;100.00;98034.41;4969253;28;20034;-53
2022/08/31 03:48:53;;;;;;;37.63;8.23;;;;;;;20.47;100.00;98035.41;4969395;28;20040;-52
2022/08/31 03:51:19;;;;;;;46.25;9.40;;;;;;;20.58;100.00;98030.09;4969112;28;20042;-52
2022/08/31 03:53:44;;;;;;;46.72;9.30;;;;;;;20.58;100.00;98035.38;4971018;28;20038;-54
2022/08/31 03:56:10;;;;;;;40.05;8.25;;;;;;;20.78;100.00;98041.75;4971516;28;20041;-56
2022/08/31 03:58:36;;;;;;;36.38;8.00;;;;;;;20.71;100.00;98039.72;4970094;28;20446;-53
2022/08/31 04:01:02;;;;;;;53.95;9.90;;;;;;;20.92;100.00;98043.25;4965855;28;20094;-53
2022/08/31 04:03:28;;;;;;;45.85;8.02;;;;;;;21.17;100.00;98046.50;4984067;28;20149;-53
2022/08/31 04:05:54;;;;;;;50.97;9.10;;;;;;;20.82;100.00;98052.09;4968568;28;20038;-52
2022/08/31 04:08:20;;;;;;;45.75;9.25;;;;;;;20.81;100.00;98051.25;4967433;28;20085;-53
2022/08/31 04:10:49;;;;;;;44.17;8.60;;;;;;;20.78;100.00;98057.66;4966922;28;20215;-52
2022/08/31 04:13:14;;;;;;;45.28;8.82;;;;;;;21.15;100.00;98053.75;4968010;28;20116;-53
2022/08/31 04:15:40;;;;;;;43.92;9.02;;;;;;;20.36;100.00;98046.03;4966520;28;20035;-53
2022/08/31 04:18:06;;;;;;;37.95;8.05;;;;;;;20.59;100.00;98055.63;4966511;28;20034;-52
2022/08/31 04:20:37;;;;;;;30.83;7.22;;;;;;;20.56;100.00;98049.75;4968171;28;20039;-52
2022/08/31 04:23:03;;;;;;;39.50;8.48;;;;;;;20.48;100.00;98049.53;4967042;28;20033;-52
2022/08/31 04:25:28;;;;;;;40.17;8.10;;;;;;;20.42;100.00;98049.06;4967969;28;20031;-52
2022/08/31 04:27:55;;;;;;;49.10;9.40;;;;;;;20.63;100.00;98053.59;4968503;28;20022;-52
2022/08/31 04:30:21;;;;;;;32.78;7.45;;;;;;;20.56;100.00;98058.53;4967723;28;20022;-52
2022/08/31 04:32:48;;;;;;;50.33;9.07;;;;;;;20.84;100.00;98058.94;4966451;28;20469;-53
2022/08/31 04:35:13;;;;;;;40.70;8.18;;;;;;;20.66;100.00;98057.81;4969567;28;20857;-53
2022/08/31 04:37:40;;;;;;;36.70;8.40;;;;;;;20.55;100.00;98056.84;4968320;28;20082;-52
2022/08/31 04:40:15;;;;;;;43.58;8.90;;;;;;;20.30;100.00;98057.97;4966540;28;20030;-54
2022/08/31 04:42:40;;;;;;;36.22;8.20;;;;;;;20.79;100.00;98054.03;4967882;28;20022;-52
2022/08/31 04:45:06;;;;;;;41.15;8.60;;;;;;;20.90;100.00;98060.28;4969428;28;20525;-54
2022/08/31 04:47:31;;;;;;;38.03;8.30;;;;;;;20.70;100.00;98059.25;4966741;28;20090;-53
2022/08/31 04:49:57;;;;;;;52.38;9.10;;;;;;;20.45;100.00;98069.16;4968389;28;20031;-53
2022/08/31 04:52:22;;;;;;;41.30;8.77;;;;;;;20.16;100.00;98069.69;4966223;28;20027;-52
2022/08/31 04:54:47;;;;;;;39.38;8.20;;;;;;;20.44;100.00;98070.13;4968530;28;20074;-54
2022/08/31 04:57:13;;;;;;;36.60;8.73;;;;;;;20.28;100.00;98070.50;4967684;28;20047;-52
2022/08/31 04:59:38;;;;;;;50.47;9.20;;;;;;;20.44;100.00;98075.44;4966975;28;20088;-53
2022/08/31 05:02:03;;;;;;;35.88;7.93;;;;;;;20.78;100.00;98075.38;4966422;28;20081;-52
2022/08/31 05:04:29;;;;;;;40.88;8.27;;;;;;;21.01;100.00;98077.94;4966849;28;20030;-51
2022/08/31 05:06:54;;;;;;;46.53;8.48;;;;;;;20.90;100.00;98077.03;4968514;28;20941;-52
2022/08/31 05:09:21;;;;;;;41.67;8.68;;;;;;;20.71;100.00;98076.81;4966813;28;20030;-51
2022/08/31 05:11:49;;;;;;;35.58;7.60;;;;;;;21.02;100.00;98079.63;4967067;28;20154;-52
2022/08/31 05:14:15;;;;;;;48.55;8.70;;;;;;;20.84;100.00;98082.81;4967933;28;20460;-51
2022/08/31 05:16:42;;;;;;;31.55;6.85;;;;;;;21.04;100.00;98080.34;4965779;28;20069;-51
2022/08/31 05:19:08;;;;;;;30.35;7.43;;;;;;;20.91;100.00;98084.00;4963728;28;20041;-52
2022/08/31 05:21:35;;;;;;;36.22;7.50;;;;;;;;;;4964761;28;20034;-51
2022/08/31 05:24:10;;;;;;;34.70;7.40;;;;;;;21.02;100.00;98087.56;4967798;28;20344;-52
2022/08/31 05:26:39;;;;;;;44.40;8.35;;;;;;;21.07;100.00;98082.75;4965306;28;20101;-52
2022/08/31 05:29:07;;;;;;;31.05;7.63;;;;;;;21.07;100.00;98082.75;4967182;28;20060;-52
2022/08/31 05:31:35;;;;;;;46.42;8.52;;;;;;;21.22;100.00;98076.16;4964532;28;20576;-51
2022/08/31 05:34:00;;;;;;;48.20;8.95;;;;;;;21.32;100.00;98082.38;4964927;28;20038;-51
2022/08/31 05:36:26;;;;;;;39.40;8.02;;;;;;;21.15;100.00;98083.75;4964306;28;20041;-53
2022/08/31 05:38:52;;;;;;;47.78;9.00;;;;;;;21.47;100.00;98084.75;4967506;28;20792;-51
2022/08/31 05:41:19;;;;;;;55.80;9.32;;;;;;;21.60;100.00;98096.00;4966886;28;20189;-55
2022/08/31 05:43:44;;;;;;;50.83;9.18;;;;;;;20.80;100.00;98084.03;4966170;28;20159;-51
2022/08/31 05:46:12;;;;;;;54.42;9.48;;;;;;;21.51;100.00;98091.47;4963925;28;20142;-51
2022/08/31 05:48:38;;;;;;;48.78;8.70;;;;;;;20.91;100.00;98091.94;4965722;28;20041;-51
2022/08/31 05:51:07;;;;;;;43.47;8.55;;;;;;;21.38;100.00;98091.63;4965619;28;20100;-54
2022/08/31 05:53:34;;;;;;;53.15;9.30;;;;;;;21.32;100.00;98093.00;4963704;28;20034;-54
2022/08/31 05:56:02;;;;;;;34.75;7.90;;;;;;;21.58;100.00;98097.94;4967325;28;20092;-54
2022/08/31 05:58:29;;;;;;;40.78;7.90;;;;;;;21.08;100.00;98100.31;4965613;28;20582;-54
2022/08/31 06:00:54;;;;;;;47.50;9.10;;;;;;;21.86;100.00;98103.56;4963734;28;20101;-53
2022/08/31 06:03:20;;;;;;;37.55;8.07;;;;;;;21.73;100.00;98091.31;4965936;28;20038;-54
2022/08/31 06:05:45;;;;;;;51.22;8.75;;;;;;;21.66;100.00;98098.13;4962186;28;20065;-54
2022/08/31 06:08:10;;;;;;;45.90;8.45;;;;;;;21.67;100.00;98097.16;4980217;28;20199;-54
2022/08/31 06:10:36;;;;;;;38.78;8.05;;;;;;;21.95;100.00;98100.09;4965014;28;20038;-52
2022/08/31 06:13:03;;;;;;;49.70;8.77;;;;;;;22.43;100.00;98098.66;4964830;28;20580;-55
2022/08/31 06:15:28;;;;;;;44.20;8.82;;;;;;;22.35;100.00;98096.69;4964446;28;20038;-53
2022/08/31 06:17:54;;;;;;;41.03;7.85;;;;;;;22.30;100.00;98106.88;4965799;28;20034;-52
2022/08/31 06:20:19;;;;;;;45.15;8.35;;;;;;;22.50;100.00;98105.09;4969663;28;20484;-53
2022/08/31 06:22:45;;;;;;;36.83;7.63;;;;;;;22.12;100.00;98099.47;4964285;28;20113;-52
2022/08/31 06:25:17;;;;;;;34.05;7.38;;;;;;;22.41;100.00;98100.59;4965580;28;20701;-52
2022/08/31 06:27:42;;;;;;;43.50;8.43;;;;;;;22.55;100.00;98099.38;4966329;28;20467;-53
2022/08/31 06:30:09;;;;;;;39.08;7.40;;;;;;;23.00;100.00;98097.06;4963747;28;20041;-53
2022/08/31 06:32:34;;;;;;;42.58;8.07;;;;;;;22.47;100.00;98102.72;4963271;28;20014;-52
2022/08/31 06:35:00;;;;;;;46.83;7.90;;;;;;;23.57;100.00;98107.84;4964327;28;20030;-53
2022/08/31 06:37:25;;;;;;;38.05;7.60;;;;;;;22.47;100.00;98111.53;4964089;28;20065;-53
2022/08/31 06:39:52;;;;;;;41.63;7.80;;;;;;;23.56;100.00;98106.16;4965523;28;20030;-52
2022/08/31 06:42:18;;;;;;;54.03;8.98;;;;;;;22.86;100.00;98106.28;4964972;28;20100;-52
2022/08/31 06:44:44;;;;;;;41.55;7.88;;;;;;;23.00;100.00;98109.53;4963162;28;20810;-52
2022/08/31 06:47:09;;;;;;;41.95;7.10;;;;;;;24.08;100.00;98107.59;4964195;28;20078;-51
2022/08/31 06:49:34;;;;;;;37.45;7.18;;;;;;;24.36;100.00;98112.00;4964610;28;20037;-52
2022/08/31 06:52:00;;;;;;;34.97;7.22;;;;;;;24.18;100.00;98109.25;4967618;28;20046;-53
2022/08/31 06:54:25;;;;;;;27.38;6.32;;;;;;;23.76;100.00;98114.13;4968539;28;20085;-53
2022/08/31 06:56:51;;;;;;;36.85;7.72;;;;;;;23.43;100.00;98113.63;4967490;28;20047;-52
2022/08/31 06:59:16;;;;;;;50.65;8.27;;;;;;;24.10;100.00;98108.34;4968854;28;20260;-53
2022/08/31 07:01:41;;;;;;;44.72;8.20;;;;;;;23.94;100.00;98117.75;4967407;28;20484;-55
2022/08/31 07:04:09;;;;;;;24.58;6.18;;;;;;;23.96;100.00;98109.63;4973624;28;20054;-55
2022/08/31 07:06:38;;;;;;;23.70;5.85;;;;;;;23.17;100.00;98114.19;4972574;28;20058;-54
2022/08/31 07:09:06;;;;;;;30.67;6.35;;;;;;;24.15;100.00;98106.91;4971134;28;20027;-56
2022/08/31 07:11:40;;;;;;;31.40;6.93;;;;;;;24.21;100.00;98108.13;4979294;28;20035;-53
2022/08/31 07:14:07;;;;;;;31.55;6.85;;;;;;;24.08;100.00;98112.94;4972069;28;20471;-54
2022/08/31 07:16:32;;;;;;;40.15;7.38;;;;;;;24.75;100.00;98106.47;4970823;28;20493;-53
2022/08/31 07:19:00;;;;;;;30.45;6.20;;;;;;;25.23;99.52;98108.94;4974677;28;20041;-52
2022/08/31 07:21:32;;;;;;;32.53;6.43;;;;;;;25.54;97.37;98115.56;4971390;28;20042;-55
2022/08/31 07:24:00;;;;;;;24.90;5.80;;;;;;;25.19;97.05;98117.25;4972653;28;20122;-52
2022/08/31 07:26:31;;;;;;;27.40;6.03;;;;;;;25.05;96.20;98123.09;4984040;28;20042;-52
2022/08/31 07:28:58;;;;;;;19.35;5.40;;;;;;;25.94;91.49;98124.06;4988096;28;20042;-52
2022/08/31 07:31:36;;;;;;;28.50;6.00;;;;;;;25.98;90.72;98125.44;4971112;28;20049;-53
2022/08/31 07:34:04;;;;;;;25.80;5.70;;;;;;;26.65;86.16;98128.28;4972905;28;20034;-53
2022/08/31 07:36:29;;;;;;;30.83;6.45;;;;;;;26.06;86.96;98127.31;4972982;28;20060;-52
2022/08/31 07:44:23;;;;;;;31.85;6.28;;;;;;;25.71;87.94;98131.72;4971039;28;20109;-56
2022/08/31 07:46:50;;;;;;;35.55;6.82;;;;;;;25.84;90.11;98133.97;4971340;28;20047;-54
2022/08/31 07:49:16;;;;;;;25.50;5.80;;;;;;;25.60;86.84;98138.13;4971627;28;20042;-53
2022/08/31 07:51:50;;;;;;;27.38;5.85;;;;;;;25.99;86.12;98142.28;4984429;28;20042;-53
2022/08/31 07:54:22;;;;;;;23.50;5.50;;;;;;;25.45;86.40;98145.03;4972278;28;20109;-52
2022/08/31 07:56:49;;;;;;;35.33;6.72;;;;;;;25.03;88.96;98141.09;4971161;28;20042;-53
2022/08/31 07:59:16;;;;;;;27.98;6.28;;;;;;;24.30;92.36;98136.56;4971732;28;20034;-55
2022/08/31 08:01:42;;;;;;;25.90;5.68;;;;;;;24.69;96.09;98139.09;4972347;28;20074;-53
2022/08/31 08:04:08;;;;;;;31.58;6.13;;;;;;;25.89;86.20;98143.19;4970891;28;20118;-53
2022/08/31 08:06:34;;;;;;;30.35;6.35;;;;;;;26.92;82.12;98139.72;4967060;28;20129;-54
2022/08/31 08:09:05;;;;;;;34.63;6.70;;;;;;;26.24;81.35;98136.09;4971278;28;20137;-53
2022/08/31 08:11:32;;;;;;;24.40;5.60;;;;;;;25.56;82.78;98145.63;4968217;28;20042;-54
2022/08/31 08:13:57;;;;;;;35.35;6.28;;;;;;;26.23;81.88;98144.25;4970714;28;20034;-52
2022/08/31 08:16:23;;;;;;;26.63;6.00;;;;;;;25.99;84.30;98142.28;4970480;28;20390;-54
2022/08/31 08:18:49;;;;;;;25.98;5.63;;;;;;;26.20;82.54;98140.09;4971104;28;20452;-53
2022/08/31 08:21:14;;;;;;;31.55;6.63;;;;;;;25.21;85.79;98144.63;4969468;28;20043;-53
2022/08/31 08:23:40;;;;;;;23.90;5.32;;;;;;;25.33;85.70;98147.94;4967192;28;20061;-53
2022/08/31 08:26:10;;;;;;;31.20;6.00;;;;;;;26.11;84.46;98139.19;4968264;28;20042;-53
2022/08/31 08:28:35;;;;;;;25.17;5.50;;;;;;;26.62;80.18;98147.34;4970391;28;20030;-52
2022/08/31 08:31:01;;;;;;;33.40;6.35;;;;;;;27.63;77.10;98141.00;4972557;28;20387;-54
2022/08/31 08:33:30;;;;;;;28.15;5.80;;;;;;;26.89;80.14;98140.03;4970388;28;20187;-53
2022/08/31 08:36:03;;;;;;;21.25;4.85;;;;;;;27.09;76.96;98138.78;4968318;28;20574;-54
2022/08/31 08:38:30;;;;;;;25.58;5.70;;;;;;;27.28;74.81;98143.00;4969392;28;20104;-53
2022/08/31 08:40:58;;;;;;;34.75;6.60;;;;;;;27.52;73.93;98149.38;4970824;28;20940;-52
2022/08/31 08:43:34;;;;;;;32.08;6.45;;;;;;;28.16;70.81;98146.84;4970724;28;20088;-54
2022/08/31 08:46:02;;;;;;;29.67;5.80;;;;;;;29.06;70.50;98153.69;4970965;28;20125;-52
2022/08/31 08:48:31;;;;;;;28.83;6.10;;;;;;;29.94;66.59;98148.84;4969740;28;20408;-54
2022/08/31 08:51:00;;;;;;;27.52;5.57;;;;;;;30.25;63.87;98147.88;4969605;28;20034;-52
2022/08/31 08:53:29;;;;;;;28.15;5.82;;;;;;;29.85;61.82;98152.63;4969132;28;20026;-53
2022/08/31 08:55:56;;;;;;;20.63;4.97;;;;;;;29.57;62.56;98145.97;4969709;28;20038;-52
2022/08/31 08:58:23;;;;;;;25.90;5.75;;;;;;;28.43;67.62;98147.41;4969449;28;20101;-53
2022/08/31 09:00:52;;;;;;;23.88;5.40;;;;;;;27.33;70.83;98145.16;4968924;28;20049;-53
2022/08/31 09:03:55;;;;;;;27.17;5.57;;;;;;;28.05;69.42;98144.53;4968585;28;20129;-52
2022/08/31 09:06:27;;;;;;;26.40;5.63;;;;;;;28.63;66.07;98145.19;4952517;28;20592;-53
2022/08/31 09:09:25;;;;;;;26.58;5.55;;;;;;;28.80;66.26;98148.63;4970457;28;20043;-53
2022/08/31 09:12:12;;;;;;;21.80;5.57;;;;;;;27.55;70.02;98146.34;4969123;28;20845;-53
2022/08/31 09:14:57;;;;;;;27.13;5.70;;;;;;;28.08;66.71;98146.84;4968493;28;20038;-54
2022/08/31 09:18:00;;;;;;;25.17;5.60;;;;;;;28.19;66.46;98149.16;4969532;28;20100;-55
2022/08/31 09:20:27;;;;;;;23.38;5.25;;;;;;;28.21;67.20;98149.84;4969206;28;20030;-56
2022/08/31 09:22:55;;;;;;;27.98;5.85;;;;;;;29.33;63.92;98140.78;4967518;28;20042;-55
2022/08/31 09:25:31;;;;;;;25.92;5.20;;;;;;;29.21;63.82;98151.94;4970925;28;20034;-54
2022/08/31 09:28:00;;;;;;;25.27;5.43;;;;;;;28.96;63.83;98156.59;4967254;28;20571;-54
2022/08/31 09:30:43;;;;;;;25.30;5.32;;;;;;;30.09;60.97;98149.72;4967732;28;20110;-54
2022/08/31 09:33:22;;;;;;;22.60;5.18;;;;;;;29.67;61.69;98136.81;4969164;28;20042;-54
2022/08/31 09:35:54;;;;;;;26.05;5.75;;;;;;;29.33;64.69;98146.97;4968146;28;20204;-53
2022/08/31 09:38:33;;;;;;;28.58;5.53;;;;;;;30.88;56.83;98146.44;4970482;28;20026;-54
2022/08/31 09:41:00;;;;;;;28.52;5.88;;;;;;;27.72;64.65;98152.56;4970046;28;20035;-55
2022/08/31 09:43:36;;;;;;;18.15;4.95;;;;;;;30.21;59.48;98138.50;4968899;28;20149;-53
2022/08/31 09:46:31;;;;;;;23.45;5.13;;;;;;;30.77;57.54;98144.25;4982840;28;20042;-53
2022/08/31 09:48:59;;;;;;;27.23;5.50;;;;;;;31.82;54.99;98148.25;4967801;28;20066;-56
2022/08/31 09:51:28;;;;;;;20.73;4.80;;;;;;;32.70;53.69;98134.28;4983838;28;20039;-53
2022/08/31 09:56:51;;;;;;;;;;;;;;;33.89;49.57;98135.56;4970112;28;20044;-54
2022/08/31 09:59:28;;;;;;;17.50;4.55;;;;;;;33.42;46.81;98137.41;4967668;28;19914;-55
2022/08/31 10:01:54;;;;;;;29.83;5.85;;;;;;;33.62;46.37;98140.13;4968007;28;20031;-55
2022/08/31 10:04:25;;;;;;;20.20;4.97;;;;;;;33.47;47.16;98143.03;4967414;28;20038;-53
2022/08/31 10:07:08;;;;;;;22.25;5.05;;;;;;;34.47;44.89;98139.44;4968619;28;20867;-54
2022/08/31 10:09:55;;;;;;;18.73;4.95;;;;;;;31.40;50.51;98135.63;4968194;28;20038;-55
2022/08/31 10:12:44;;;;;;;23.38;5.25;;;;;;;31.93;48.87;98144.19;4984425;28;20035;-56
2022/08/31 10:15:18;;;;;;;19.95;4.93;;;;;;;31.29;50.34;98137.78;4957073;28;20050;-56
2022/08/31 10:18:01;;;;;;;18.70;4.85;;;;;;;32.59;47.31;98134.84;4971218;28;20019;-56
2022/08/31 10:20:38;;;;;;;27.88;5.68;;;;;;;32.72;47.83;98137.63;4967991;28;20501;-56
2022/08/31 10:23:21;;;;;;;20.02;4.80;;;;;;;33.86;44.08;98140.56;4968371;28;20037;-56
2022/08/31 10:25:57;;;;;;;22.63;4.65;;;;;;;33.35;46.57;98137.41;4970337;28;20038;-54
2022/08/31 10:28:51;;;;;;;25.38;5.68;;;;;;;32.70;48.29;98139.69;4966600;28;20034;-56
2022/08/31 10:31:22;;;;;;;22.92;5.05;;;;;;;31.88;48.70;98138.53;4985514;28;20449;-57
2022/08/31 10:36:48;;;;;;;22.30;5.70;;;;;;;30.59;50.86;98141.13;4972307;28;20117;-54
2022/08/31 10:39:37;;;;;;;21.60;5.18;;;;;;;30.66;51.27;98142.00;4973542;28;20137;-54
2022/08/31 10:42:05;;;;;;;22.38;5.03;;;;;;;29.98;53.08;98142.09;4972133;28;20054;-54
2022/08/31 10:44:43;;;;;;;26.23;5.70;;;;;;;30.51;51.58;98145.59;4971629;28;20552;-55
2022/08/31 10:47:11;;;;;;;23.25;5.85;;;;;;;29.52;54.88;98142.13;4972971;28;20073;-55
2022/08/31 10:49:38;;;;;;;25.67;5.65;;;;;;;30.28;53.47;98140.25;4968683;28;20040;-56
2022/08/31 10:52:21;;;;;;;23.98;5.18;;;;;;;30.16;54.14;98137.22;4972274;28;20070;-56
2022/08/31 10:55:12;;;;;;;24.10;5.72;;;;;;;29.81;53.79;98144.09;4974850;28;20022;-55
2022/08/31 10:57:55;;;;;;;26.90;5.70;;;;;;;29.12;56.68;98134.19;4973444;28;20153;-57
2022/08/31 11:00:47;;;;;;;24.75;5.25;;;;;;;28.54;58.84;98140.88;4971134;28;20277;-55
2022/08/31 11:03:21;;;;;;;25.80;5.40;;;;;;;28.22;60.01;98132.72;4971525;28;20026;-56
2022/08/31 11:05:50;;;;;;;34.17;6.75;;;;;;;29.00;59.31;98136.44;4970522;28;20038;-57
2022/08/31 11:08:30;;;;;;;33.78;6.30;;;;;;;28.26;61.53;98134.03;4972601;28;20030;-54
2022/08/31 11:10:58;;;;;;;29.65;6.10;;;;;;;29.25;60.56;98141.69;4972299;28;20165;-56
2022/08/31 11:13:59;;;;;;;29.02;5.78;;;;;;;28.58;60.71;98137.66;4972353;28;20023;-57
2022/08/31 11:16:53;;;;;;;23.38;5.07;;;;;;;28.76;60.68;98133.88;4971099;28;20645;-57
2022/08/31 11:19:37;;;;;;;24.38;5.32;;;;;;;30.34;55.79;98133.34;4970577;28;20034;-55
2022/08/31 11:22:02;;;;;;;25.70;5.68;;;;;;;28.63;60.60;98134.44;4970953;28;20050;-56
2022/08/31 11:24:46;;;;;;;22.60;5.30;;;;;;;28.61;60.38;98131.94;4970458;28;20037;-57
2022/08/31 11:27:23;;;;;;;27.27;5.88;;;;;;;28.66;60.57;98133.28;4971000;28;20042;-57
2022/08/31 11:29:58;;;;;;;25.25;5.90;;;;;;;28.40;61.25;98123.63;4971731;28;20030;-55
2022/08/31 11:32:36;;;;;;;26.65;5.60;;;;;;;28.34;62.21;98124.31;4971362;28;20182;-54
2022/08/31 11:35:07;;;;;;;35.17;6.30;;;;;;;28.03;62.98;98128.59;4970894;28;20403;-54
2022/08/31 11:37:54;;;;;;;24.60;5.30;;;;;;;29.25;59.44;98132.78;4971960;28;20678;-54
2022/08/31 11:40:41;;;;;;;22.92;5.47;;;;;;;27.66;61.91;98137.16;4970603;28;20031;-53
2022/08/31 11:43:31;;;;;;;29.58;6.38;;;;;;;28.21;62.03;98141.81;4970535;28;20031;-53
2022/08/31 11:46:22;;;;;;;28.98;5.82;;;;;;;28.78;60.60;98126.50;4970588;28;20101;-56
2022/08/31 11:48:52;;;;;;;28.08;5.95;;;;;;;27.85;63.81;98131.44;4972106;28;20038;-56